Time;durP1;ratioP1;P1;durP2;ratioP2;P2;SDS_P1;SDS_P2;PMS_P1;PMS_P2;Temp;Humidity;BMP_temperature;BMP_pressure;BME280_temperature;BME280_humidity;BME280_pressure;Samples;Min_cycle;Max_cycle;Signal;HPM_P1;HPM_P2
2021/12/22 00:01:28;;;;;;;11.93;10.03;;;-3.80;99.90;;;;;;5031862;28;20223;-77
2021/12/22 00:03:54;;;;;;;13.17;9.93;;;-3.80;99.90;;;;;;5030957;28;20203;-76
2021/12/22 00:06:21;;;;;;;11.50;9.33;;;-3.80;99.90;;;;;;5030358;28;20227;-77
2021/12/22 00:08:48;;;;;;;13.17;9.97;;;-3.70;99.90;;;;;;5032070;28;20204;-76
2021/12/22 00:11:14;;;;;;;13.33;10.53;;;-3.80;99.90;;;;;;5030053;28;20176;-76
2021/12/22 00:13:40;;;;;;;10.87;9.67;;;-3.90;99.90;;;;;;5029613;28;20178;-75
2021/12/22 00:16:05;;;;;;;12.60;9.93;;;-3.90;99.90;;;;;;5032124;28;20246;-77
2021/12/22 00:18:31;;;;;;;13.03;9.37;;;-3.80;99.90;;;;;;5031007;28;20188;-77
2021/12/22 00:20:57;;;;;;;12.37;10.30;;;-3.80;99.90;;;;;;5032278;28;20569;-77
2021/12/22 00:23:22;;;;;;;11.40;9.87;;;-3.80;99.90;;;;;;5028019;28;20184;-77
2021/12/22 00:25:48;;;;;;;12.63;9.87;;;-3.90;99.90;;;;;;5030260;28;20216;-76
2021/12/22 00:28:14;;;;;;;11.37;9.03;;;-3.80;99.90;;;;;;5030139;28;20208;-77
2021/12/22 00:30:40;;;;;;;12.23;9.57;;;-3.80;99.90;;;;;;5029350;28;20201;-76
2021/12/22 00:33:07;;;;;;;13.70;10.10;;;-3.70;99.90;;;;;;5030663;28;20173;-76
2021/12/22 00:35:45;;;;;;;12.30;10.47;;;-3.70;99.90;;;;;;5031257;28;20715;-77
2021/12/22 00:38:13;;;;;;;14.57;9.33;;;-3.70;99.90;;;;;;5028455;28;20675;-77
2021/12/22 00:40:41;;;;;;;12.30;10.20;;;-3.70;99.90;;;;;;5028053;28;20697;-77
2021/12/22 00:43:07;;;;;;;13.37;9.80;;;-3.70;99.90;;;;;;5030676;28;20193;-77
2021/12/22 00:45:35;;;;;;;11.27;8.43;;;-3.70;99.90;;;;;;5029002;28;20235;-77
2021/12/22 00:48:02;;;;;;;13.07;9.73;;;-3.60;99.90;;;;;;5030285;28;20204;-77
2021/12/22 00:50:27;;;;;;;14.57;9.50;;;-3.50;99.90;;;;;;5030115;28;20293;-77
2021/12/22 00:52:53;;;;;;;11.63;9.70;;;-3.50;99.90;;;;;;5028992;28;20675;-77
2021/12/22 00:55:20;;;;;;;14.27;9.30;;;-3.50;99.90;;;;;;5031159;28;20251;-77
2021/12/22 00:57:47;;;;;;;15.30;10.27;;;-3.40;99.90;;;;;;5030077;28;20199;-77
2021/12/22 01:00:14;;;;;;;11.33;9.60;;;-3.40;99.90;;;;;;5030629;28;20205;-77
2021/12/22 01:02:40;;;;;;;12.37;9.43;;;-3.40;99.90;;;;;;5029520;28;20188;-77
2021/12/22 01:05:07;;;;;;;14.40;9.93;;;-3.40;99.90;;;;;;5023937;28;20271;-77
2021/12/22 01:07:32;;;;;;;10.33;9.00;;;-3.30;99.90;;;;;;5030650;28;20191;-77
2021/12/22 01:09:58;;;;;;;12.20;8.97;;;-3.20;99.90;;;;;;5029540;28;20220;-77
2021/12/22 01:12:24;;;;;;;13.57;10.43;;;-3.10;99.90;;;;;;5028378;28;20212;-77
2021/12/22 01:14:49;;;;;;;10.67;9.23;;;-3.20;99.90;;;;;;5032665;28;20172;-77
2021/12/22 01:17:16;;;;;;;12.17;9.20;;;-3.20;99.90;;;;;;5031027;28;20183;-76
2021/12/22 01:25:07;;;;;;;12.07;10.00;;;-3.20;99.90;;;;;;5029928;28;20191;-76
2021/12/22 01:27:38;;;;;;;11.03;9.33;;;-3.40;99.90;;;;;;5031165;28;20176;-76
2021/12/22 01:30:07;;;;;;;10.33;9.33;;;-3.50;99.90;;;;;;5026161;28;20299;-76
2021/12/22 01:32:34;;;;;;;10.70;8.90;;;-3.50;99.90;;;;;;5030144;28;20177;-76
2021/12/22 01:35:00;;;;;;;13.33;10.93;;;-3.50;99.90;;;;;;5030676;28;20267;-75
2021/12/22 01:37:25;;;;;;;11.50;9.70;;;-3.60;99.90;;;;;;5029634;28;20632;-76
2021/12/22 01:39:51;;;;;;;16.13;9.53;;;-3.60;99.90;;;;;;5022142;28;20193;-76
2021/12/22 01:42:17;;;;;;;13.30;8.37;;;-3.60;99.90;;;;;;5029441;28;20220;-76
2021/12/22 01:50:43;;;;;;;13.27;9.93;;;-3.70;99.90;;;;;;5030302;28;20320;-76
2021/12/22 01:53:21;;;;;;;12.07;9.57;;;-3.80;99.90;;;;;;5030407;28;20191;-76
2021/12/22 01:56:23;;;;;;;11.97;9.30;;;-3.90;99.90;;;;;;5027330;28;20601;-76
2021/12/22 01:58:52;;;;;;;11.80;8.60;;;-3.90;99.90;;;;;;5027707;28;20200;-77
2021/12/22 02:01:19;;;;;;;11.27;8.80;;;-4.00;99.90;;;;;;5023041;28;20193;-76
2021/12/22 02:03:48;;;;;;;11.30;9.03;;;-4.10;99.90;;;;;;5029870;28;20230;-76
2021/12/22 02:06:15;;;;;;;11.67;8.73;;;-4.10;99.90;;;;;;5028107;28;20223;-77
2021/12/22 02:08:43;;;;;;;14.13;9.63;;;-4.20;99.90;;;;;;5027905;28;20223;-75
2021/12/22 02:11:09;;;;;;;13.90;9.30;;;-4.30;99.90;;;;;;5026816;28;20655;-76
2021/12/22 02:13:40;;;;;;;12.23;9.13;;;-4.20;99.90;;;;;;5022952;28;20683;-76
2021/12/22 02:16:10;;;;;;;13.90;9.60;;;-4.20;99.90;;;;;;5032509;28;20246;-76
2021/12/22 02:18:41;;;;;;;11.47;10.00;;;-4.30;99.90;;;;;;5033610;28;20631;-76
2021/12/22 02:21:07;;;;;;;14.10;9.37;;;-4.30;99.90;;;;;;5034389;28;20195;-76
2021/12/22 02:23:34;;;;;;;11.63;9.13;;;-4.40;99.90;;;;;;5028805;28;20671;-76
2021/12/22 02:26:09;;;;;;;12.77;9.20;;;-4.40;99.90;;;;;;5034730;28;20188;-76
2021/12/22 02:28:37;;;;;;;12.53;10.13;;;-4.50;99.90;;;;;;5033401;28;20206;-77
2021/12/22 02:31:03;;;;;;;11.60;9.33;;;-4.60;99.90;;;;;;5032081;28;20192;-77
2021/12/22 02:33:36;;;;;;;12.33;9.60;;;-4.70;99.90;;;;;;5032747;28;20204;-76
2021/12/22 02:38:36;;;;;;;12.40;9.80;;;-4.80;99.90;;;;;;5031926;28;20189;-74
2021/12/22 02:41:02;;;;;;;12.53;9.00;;;-4.80;99.90;;;;;;5032339;28;20653;-74
2021/12/22 02:43:32;;;;;;;13.70;10.10;;;-4.90;99.90;;;;;;5032565;28;20220;-74
2021/12/22 02:45:59;;;;;;;14.50;10.00;;;-4.90;99.90;;;;;;5032091;28;20189;-74
2021/12/22 02:48:29;;;;;;;13.00;9.60;;;-5.00;99.90;;;;;;5033354;28;20242;-74
2021/12/22 02:50:57;;;;;;;11.83;9.47;;;-5.00;99.90;;;;;;5033640;28;20620;-75
2021/12/22 02:53:28;;;;;;;13.87;9.90;;;-4.90;99.90;;;;;;5034057;28;20247;-75
2021/12/22 02:56:02;;;;;;;13.80;9.33;;;-4.90;99.90;;;;;;5028060;28;20188;-75
2021/12/22 02:58:46;;;;;;;14.33;10.13;;;-4.90;99.90;;;;;;5031089;28;20171;-75
2021/12/22 03:01:52;;;;;;;11.97;9.93;;;-4.90;99.90;;;;;;5029335;28;20250;-76
2021/12/22 03:04:17;;;;;;;11.33;7.83;;;-4.80;99.90;;;;;;5028325;28;20185;-74
2021/12/22 03:06:52;;;;;;;13.23;10.43;;;-4.80;99.90;;;;;;5031096;28;20200;-74
2021/12/22 03:09:37;;;;;;;13.20;10.30;;;-4.70;99.90;;;;;;5031277;28;20814;-75
2021/12/22 03:12:06;;;;;;;13.97;10.03;;;-4.70;99.90;;;;;;5032428;28;20219;-75
2021/12/22 03:14:32;;;;;;;14.10;10.93;;;-4.70;99.90;;;;;;5031194;28;20180;-74
2021/12/22 03:16:59;;;;;;;14.70;10.20;;;-4.60;99.90;;;;;;5029305;28;20272;-74
2021/12/22 03:19:28;;;;;;;11.00;9.53;;;-4.60;99.90;;;;;;5024862;28;20208;-74
2021/12/22 03:22:00;;;;;;;12.37;9.43;;;-4.50;99.90;;;;;;5030607;28;20188;-74
2021/12/22 03:24:27;;;;;;;14.27;9.57;;;-4.50;99.90;;;;;;5028762;28;20272;-74
2021/12/22 03:26:53;;;;;;;10.57;9.43;;;-4.40;99.90;;;;;;5028869;28;20683;-74
2021/12/22 03:29:19;;;;;;;9.97;8.90;;;-4.40;99.90;;;;;;5026434;28;20208;-74
2021/12/22 03:31:46;;;;;;;10.70;8.80;;;-4.40;99.90;;;;;;5019873;28;20185;-74
2021/12/22 03:34:13;;;;;;;11.40;9.27;;;-4.30;99.90;;;;;;5020451;28;20227;-74
2021/12/22 03:36:41;;;;;;;11.10;9.07;;;-4.40;99.90;;;;;;5021659;28;20189;-75
2021/12/22 03:39:07;;;;;;;11.27;9.40;;;-4.30;99.90;;;;;;5020385;28;20208;-75
2021/12/22 03:41:34;;;;;;;11.70;9.00;;;-4.40;99.90;;;;;;5027744;28;20267;-75
2021/12/22 03:44:01;;;;;;;12.23;9.47;;;-4.50;99.90;;;;;;5022941;28;20188;-76
2021/12/22 03:46:27;;;;;;;12.07;9.97;;;-4.60;99.90;;;;;;5029834;28;20223;-76
2021/12/22 03:48:52;;;;;;;9.87;8.40;;;-4.60;99.90;;;;;;5024869;28;20270;-75
2021/12/22 03:51:18;;;;;;;9.43;8.43;;;-4.70;99.90;;;;;;5023470;28;20181;-75
2021/12/22 03:53:44;;;;;;;10.23;8.50;;;-4.80;99.90;;;;;;5023175;28;20267;-75
2021/12/22 03:56:09;;;;;;;9.70;8.23;;;-4.80;99.90;;;;;;5020419;28;20651;-75
2021/12/22 03:58:35;;;;;;;11.87;9.50;;;-4.90;99.90;;;;;;5026509;28;20255;-75
2021/12/22 04:01:01;;;;;;;11.17;8.67;;;-4.90;99.90;;;;;;5021024;28;20192;-75
2021/12/22 04:03:30;;;;;;;11.80;9.90;;;-5.00;99.90;;;;;;5028562;28;20189;-76
2021/12/22 04:05:56;;;;;;;12.80;9.67;;;-5.00;99.90;;;;;;5034194;28;20271;-76
2021/12/22 04:08:22;;;;;;;9.90;8.87;;;-5.10;99.90;;;;;;5032084;28;20287;-74
2021/12/22 04:10:49;;;;;;;12.97;9.17;;;-5.10;99.90;;;;;;5031766;28;20197;-73
2021/12/22 04:13:15;;;;;;;11.70;9.87;;;-5.10;99.90;;;;;;5025050;28;20180;-75
2021/12/22 04:15:42;;;;;;;9.47;8.43;;;-5.20;99.90;;;;;;5032003;28;20172;-75
2021/12/22 04:18:08;;;;;;;12.87;8.70;;;-5.20;99.90;;;;;;5027213;28;20193;-75
2021/12/22 04:20:33;;;;;;;11.60;9.23;;;-5.10;99.90;;;;;;5031242;28;20212;-76
2021/12/22 04:23:00;;;;;;;11.03;9.80;;;-5.10;99.90;;;;;;5034222;28;20195;-76
2021/12/22 04:25:27;;;;;;;9.40;8.17;;;-5.00;99.90;;;;;;5030996;28;20207;-77
2021/12/22 04:28:04;;;;;;;12.33;9.67;;;-5.00;99.90;;;;;;5023099;28;20185;-76
2021/12/22 04:30:29;;;;;;;11.87;8.93;;;-5.10;99.90;;;;;;5032585;28;20209;-76
2021/12/22 04:32:55;;;;;;;14.37;9.67;;;-5.20;99.90;;;;;;5033434;28;20172;-76
2021/12/22 04:35:21;;;;;;;11.80;9.87;;;-5.30;99.90;;;;;;5032352;28;20667;-76
2021/12/22 04:37:47;;;;;;;11.43;9.70;;;-5.40;99.90;;;;;;5031616;28;20541;-76
2021/12/22 04:40:13;;;;;;;12.87;9.90;;;-5.40;99.90;;;;;;5030463;28;20603;-75
2021/12/22 04:42:39;;;;;;;10.87;9.77;;;-5.40;99.90;;;;;;5033634;28;20187;-76
2021/12/22 04:45:07;;;;;;;11.80;10.10;;;-5.50;99.90;;;;;;5028877;28;20753;-76
2021/12/22 04:47:33;;;;;;;11.53;9.20;;;-5.50;99.90;;;;;;5027396;28;20188;-76
2021/12/22 04:50:00;;;;;;;11.23;9.00;;;-5.50;99.90;;;;;;5029261;28;20696;-75
2021/12/22 04:52:33;;;;;;;12.03;9.07;;;-5.50;99.90;;;;;;5038345;28;20179;-76
2021/12/22 04:55:05;;;;;;;12.23;9.00;;;-5.50;99.90;;;;;;5030044;28;20189;-76
2021/12/22 04:57:32;;;;;;;15.87;9.67;;;-5.50;99.90;;;;;;5020887;28;20304;-78
2021/12/22 05:00:05;;;;;;;12.93;9.07;;;-5.40;99.90;;;;;;5032533;28;20216;-77
2021/12/22 05:02:31;;;;;;;11.20;9.37;;;-5.50;99.90;;;;;;5040668;28;20180;-75
2021/12/22 05:04:56;;;;;;;12.47;8.67;;;-5.60;99.90;;;;;;5029706;28;20586;-76
2021/12/22 05:07:22;;;;;;;11.03;9.07;;;-5.60;99.90;;;;;;5028331;28;20185;-76
2021/12/22 05:09:48;;;;;;;11.90;10.00;;;-5.60;99.90;;;;;;5019832;28;20214;-76
2021/12/22 05:12:13;;;;;;;12.00;9.23;;;-5.70;99.90;;;;;;5022462;28;20235;-76
2021/12/22 05:14:42;;;;;;;13.33;10.73;;;-5.70;99.90;;;;;;5025704;28;20187;-77
2021/12/22 05:17:17;;;;;;;12.60;9.10;;;-5.70;99.90;;;;;;5027099;28;20191;-75
2021/12/22 05:19:42;;;;;;;10.40;8.87;;;-5.80;99.90;;;;;;5036541;28;20207;-75
2021/12/22 05:22:08;;;;;;;14.40;10.00;;;-5.80;99.90;;;;;;5019287;28;20191;-76
2021/12/22 05:24:34;;;;;;;11.37;8.60;;;-5.80;99.90;;;;;;5027635;28;20259;-74
2021/12/22 05:26:59;;;;;;;11.80;8.60;;;-5.90;99.90;;;;;;5021340;28;20265;-76
2021/12/22 05:29:25;;;;;;;12.80;9.43;;;-5.90;99.90;;;;;;5032957;28;20551;-76
2021/12/22 05:31:54;;;;;;;11.70;9.20;;;-5.80;99.90;;;;;;5027074;28;20180;-76
2021/12/22 05:34:20;;;;;;;11.00;9.07;;;-5.80;99.90;;;;;;5022534;28;20221;-76
2021/12/22 05:36:46;;;;;;;14.70;9.93;;;-5.90;99.90;;;;;;5029560;28;20275;-76
2021/12/22 05:39:12;;;;;;;12.23;8.90;;;-5.80;99.90;;;;;;5024295;28;20586;-75
2021/12/22 05:41:38;;;;;;;13.70;9.63;;;-5.80;99.90;;;;;;5031535;28;20256;-76
2021/12/22 05:44:04;;;;;;;10.30;8.60;;;-5.80;99.90;;;;;;5029276;28;20643;-76
2021/12/22 05:46:29;;;;;;;9.47;8.43;;;-5.80;99.90;;;;;;5022224;28;20262;-76
2021/12/22 05:48:55;;;;;;;13.27;8.80;;;-5.70;99.90;;;;;;5028664;28;20215;-76
2021/12/22 05:51:22;;;;;;;11.00;9.23;;;-5.80;99.90;;;;;;5031631;28;20187;-76
2021/12/22 05:53:48;;;;;;;12.83;9.30;;;-5.80;99.90;;;;;;5028031;28;20173;-77
2021/12/22 05:56:14;;;;;;;12.50;8.93;;;-5.90;99.90;;;;;;5028665;28;20184;-76
2021/12/22 05:58:40;;;;;;;11.83;8.73;;;-6.00;99.90;;;;;;5032941;28;20180;-76
2021/12/22 06:01:06;;;;;;;11.53;8.80;;;-5.90;99.90;;;;;;5032989;28;20203;-76
2021/12/22 06:03:31;;;;;;;11.23;8.77;;;-6.00;99.90;;;;;;5033993;28;20275;-76
2021/12/22 06:05:57;;;;;;;9.37;8.47;;;-6.00;99.90;;;;;;5034597;28;20184;-76
2021/12/22 06:08:23;;;;;;;14.60;9.53;;;-6.00;99.90;;;;;;5030705;28;20200;-76
2021/12/22 06:10:48;;;;;;;11.67;8.57;;;-6.00;99.90;;;;;;5031851;28;20569;-76
2021/12/22 06:13:14;;;;;;;10.17;9.17;;;-6.00;99.90;;;;;;5032930;28;20185;-76
2021/12/22 06:15:40;;;;;;;12.77;9.43;;;-6.00;99.90;;;;;;5025153;28;20177;-76
2021/12/22 06:18:07;;;;;;;12.73;9.80;;;-6.00;99.90;;;;;;5035037;28;20180;-76
2021/12/22 06:20:34;;;;;;;14.90;9.57;;;-6.00;99.90;;;;;;5030151;28;20205;-77
2021/12/22 06:23:00;;;;;;;13.10;10.80;;;-5.90;99.90;;;;;;5020857;28;20252;-76
2021/12/22 06:25:26;;;;;;;14.63;10.73;;;-5.80;99.90;;;;;;5025182;28;20173;-77
2021/12/22 06:27:52;;;;;;;14.37;11.37;;;-5.90;99.90;;;;;;5023060;28;20692;-77
2021/12/22 06:30:20;;;;;;;18.23;10.70;;;-5.70;99.90;;;;;;5024200;28;20211;-76
2021/12/22 06:32:47;;;;;;;17.00;10.30;;;-5.70;99.90;;;;;;5022759;28;20188;-76
2021/12/22 06:35:13;;;;;;;10.17;9.10;;;-5.70;99.90;;;;;;5024788;28;20176;-77
2021/12/22 06:37:39;;;;;;;13.67;10.33;;;-5.80;99.90;;;;;;5022647;28;20186;-77
2021/12/22 06:40:06;;;;;;;12.60;9.97;;;-5.80;99.90;;;;;;5032586;28;20232;-77
2021/12/22 06:42:32;;;;;;;10.43;9.37;;;-5.90;99.90;;;;;;5028319;28;20252;-77
2021/12/22 06:44:58;;;;;;;12.00;9.00;;;-5.90;99.90;;;;;;5027076;28;20258;-77
2021/12/22 06:47:24;;;;;;;10.73;8.83;;;-5.90;99.90;;;;;;5028080;28;20188;-77
2021/12/22 06:49:50;;;;;;;13.73;9.50;;;-6.00;99.90;;;;;;5025081;28;20213;-75
2021/12/22 06:52:16;;;;;;;13.30;9.67;;;-6.00;99.90;;;;;;5030335;28;20224;-76
2021/12/22 06:54:42;;;;;;;14.93;9.67;;;-6.00;99.90;;;;;;5026178;28;20226;-76
2021/12/22 06:57:08;;;;;;;11.20;10.17;;;-6.00;99.90;;;;;;5028079;28;20176;-75
2021/12/22 06:59:33;;;;;;;14.23;10.30;;;-5.90;99.90;;;;;;5036872;28;20295;-75
2021/12/22 07:01:59;;;;;;;11.83;10.03;;;-6.00;99.90;;;;;;5029604;28;20184;-76
2021/12/22 07:04:26;;;;;;;15.43;9.90;;;-6.00;99.90;;;;;;5036616;28;20259;-76
2021/12/22 07:06:51;;;;;;;14.13;9.57;;;-6.00;99.90;;;;;;5022135;28;20180;-76
2021/12/22 07:09:17;;;;;;;12.20;9.40;;;-5.90;99.90;;;;;;5034574;28;20237;-75
2021/12/22 07:11:43;;;;;;;10.70;9.13;;;-5.90;99.90;;;;;;5033551;28;20264;-75
2021/12/22 07:14:09;;;;;;;11.77;9.27;;;-6.00;99.90;;;;;;5025066;28;20185;-74
2021/12/22 07:16:37;;;;;;;10.23;9.17;;;-6.00;99.90;;;;;;5033010;28;20678;-76
2021/12/22 07:19:03;;;;;;;14.00;10.40;;;-5.90;99.90;;;;;;5035307;28;20201;-75
2021/12/22 07:21:29;;;;;;;15.37;10.03;;;-5.90;99.90;;;;;;5032069;28;20300;-76
2021/12/22 07:23:55;;;;;;;10.93;9.30;;;-5.90;99.90;;;;;;5037272;28;20180;-77
2021/12/22 07:26:21;;;;;;;11.17;9.50;;;-5.90;99.90;;;;;;5033321;28;20707;-76
2021/12/22 07:28:49;;;;;;;12.87;9.63;;;-5.90;99.90;;;;;;5033393;28;20254;-80
2021/12/22 07:31:16;;;;;;;12.83;9.73;;;-5.90;99.90;;;;;;5036222;28;20266;-73
2021/12/22 07:34:05;;;;;;;16.97;10.30;;;-5.90;99.90;;;;;;5029074;28;20234;-74
2021/12/22 07:36:33;;;;;;;11.70;10.13;;;-5.90;99.90;;;;;;5029201;28;20201;-73
2021/12/22 07:39:01;;;;;;;12.90;9.57;;;-5.80;99.90;;;;;;5034858;28;20200;-74
2021/12/22 07:41:28;;;;;;;11.33;9.03;;;-5.70;99.90;;;;;;5025946;28;20674;-74
2021/12/22 07:43:54;;;;;;;14.10;9.97;;;-5.70;99.90;;;;;;5024062;28;20184;-74
2021/12/22 07:46:20;;;;;;;14.07;10.30;;;-5.60;99.90;;;;;;5034474;28;20183;-74
2021/12/22 07:48:46;;;;;;;16.70;11.03;;;-5.60;99.90;;;;;;5028211;28;20204;-76
2021/12/22 07:51:12;;;;;;;14.30;10.63;;;-5.50;99.90;;;;;;5022522;28;20271;-77
2021/12/22 07:53:38;;;;;;;16.00;11.07;;;-5.40;99.90;;;;;;5025928;28;20280;-74
2021/12/22 07:56:04;;;;;;;13.77;11.07;;;-5.30;99.90;;;;;;5023851;28;20185;-73
2021/12/22 07:58:30;;;;;;;14.03;10.93;;;-5.20;99.90;;;;;;5021457;28;20192;-72
2021/12/22 08:00:56;;;;;;;13.43;10.00;;;-5.10;99.90;;;;;;5025645;28;20279;-74
2021/12/22 08:03:24;;;;;;;11.17;9.30;;;-5.00;99.90;;;;;;5022345;28;20663;-74
2021/12/22 08:05:50;;;;;;;11.10;9.07;;;-4.80;99.90;;;;;;5027389;28;20181;-73
2021/12/22 08:08:17;;;;;;;19.40;11.80;;;-4.70;99.90;;;;;;5025935;28;20549;-74
2021/12/22 08:10:43;;;;;;;13.20;10.47;;;-4.70;99.90;;;;;;5021057;28;20236;-73
2021/12/22 08:13:08;;;;;;;14.27;10.83;;;-4.80;99.90;;;;;;5023805;28;20181;-74
2021/12/22 08:15:34;;;;;;;12.70;10.23;;;-4.80;99.90;;;;;;5028475;28;20237;-73
2021/12/22 08:18:00;;;;;;;18.07;10.37;;;-4.80;99.90;;;;;;5022985;28;20656;-74
2021/12/22 08:20:26;;;;;;;12.07;9.40;;;-4.80;99.90;;;;;;5025423;28;20206;-73
2021/12/22 08:22:53;;;;;;;12.90;9.57;;;-4.80;99.90;;;;;;5021536;28;20701;-73
2021/12/22 08:25:19;;;;;;;14.17;10.23;;;-4.70;99.90;;;;;;5027357;28;20196;-73
2021/12/22 08:27:45;;;;;;;10.80;9.23;;;-4.70;99.90;;;;;;5025511;28;20208;-73
2021/12/22 08:30:11;;;;;;;15.33;9.63;;;-4.60;99.90;;;;;;5023175;28;20213;-72
2021/12/22 08:32:37;;;;;;;13.00;10.00;;;-4.50;99.90;;;;;;5023381;28;20199;-74
2021/12/22 08:35:06;;;;;;;11.70;9.07;;;-4.50;99.90;;;;;;5026678;28;20238;-74
2021/12/22 08:40:17;;;;;;;11.97;9.93;;;-4.40;99.90;;;;;;5034138;28;20569;-74
2021/12/22 08:42:45;;;;;;;12.97;9.60;;;-4.30;99.90;;;;;;5023892;28;20185;-75
2021/12/22 08:45:12;;;;;;;11.10;9.00;;;-4.20;99.90;;;;;;5029178;28;20188;-76
2021/12/22 08:47:38;;;;;;;12.17;9.50;;;-4.20;99.90;;;;;;5028524;28;20210;-75
2021/12/22 08:50:06;;;;;;;9.77;8.73;;;-4.20;99.90;;;;;;5029154;28;20269;-74
2021/12/22 08:52:32;;;;;;;11.90;8.33;;;-4.20;99.90;;;;;;5032642;28;20659;-75
2021/12/22 08:54:58;;;;;;;11.40;10.10;;;-4.10;99.90;;;;;;5029790;28;20196;-75
2021/12/22 08:57:23;;;;;;;11.93;9.70;;;-4.00;99.90;;;;;;5026591;28;20180;-74
2021/12/22 08:59:49;;;;;;;10.93;8.80;;;-3.80;99.90;;;;;;5023867;28;20212;-75
2021/12/22 09:02:14;;;;;;;9.67;8.63;;;-3.00;99.90;;;;;;5035973;28;20172;-75
2021/12/22 09:04:40;;;;;;;11.03;8.97;;;-2.00;99.90;;;;;;5032235;28;20196;-75
2021/12/22 09:07:06;;;;;;;11.87;8.73;;;-1.00;99.90;;;;;;5031098;28;20180;-75
2021/12/22 09:09:32;;;;;;;11.30;8.13;;;-0.40;99.90;;;;;;5026645;28;20200;-75
2021/12/22 09:11:57;;;;;;;9.07;8.27;;;-0.10;99.90;;;;;;5021462;28;20185;-75
2021/12/22 09:14:24;;;;;;;9.67;7.80;;;0.10;99.90;;;;;;5025251;28;20211;-75
2021/12/22 09:16:51;;;;;;;9.70;8.00;;;0.20;99.90;;;;;;5029569;28;20178;-75
2021/12/22 09:19:17;;;;;;;8.23;7.43;;;0.10;99.90;;;;;;5025461;28;20204;-75
2021/12/22 09:21:43;;;;;;;8.77;7.83;;;-0.10;99.90;;;;;;5023283;28;20318;-75
2021/12/22 09:24:10;;;;;;;7.83;7.03;;;-0.20;99.90;;;;;;5024683;28;20288;-74
2021/12/22 09:26:37;;;;;;;9.00;8.07;;;-0.10;99.90;;;;;;5036763;28;20237;-72
2021/12/22 09:29:04;;;;;;;9.03;8.10;;;0.10;99.90;;;;;;5030725;28;20266;-72
2021/12/22 09:31:30;;;;;;;10.30;7.47;;;1.30;99.90;;;;;;5024113;28;20188;-73
2021/12/22 09:33:56;;;;;;;8.87;7.63;;;3.10;99.90;;;;;;5026284;28;20181;-74
2021/12/22 09:36:22;;;;;;;7.80;6.93;;;5.10;99.90;;;;;;5028030;28;20545;-78
2021/12/22 09:38:48;;;;;;;8.00;6.80;;;6.50;99.90;;;;;;5025156;28;20540;-75
2021/12/22 09:41:13;;;;;;;7.47;6.87;;;7.90;96.90;;;;;;5028688;28;20275;-72
2021/12/22 09:43:40;;;;;;;7.50;6.70;;;8.40;91.50;;;;;;5027259;28;20266;-73
2021/12/22 09:46:10;;;;;;;7.97;6.70;;;9.00;88.10;;;;;;5028928;28;20184;-78
2021/12/22 09:53:36;;;;;;;7.60;6.88;;;9.70;76.60;;;;;;5020922;28;20175;-75
2021/12/22 09:56:03;;;;;;;7.40;6.72;;;10.50;72.60;;;;;;5025702;28;20247;-72
2021/12/22 09:58:29;;;;;;;9.48;7.20;;;11.70;69.10;;;;;;5033007;28;20253;-73
2021/12/22 10:00:56;;;;;;;7.45;6.75;;;12.20;62.90;;;;;;5027579;28;20219;-72
2021/12/22 10:03:23;;;;;;;6.88;6.28;;;12.30;63.40;;;;;;5036762;28;20263;-75
2021/12/22 10:05:50;;;;;;;7.68;6.90;;;13.20;60.80;;;;;;5025871;28;20176;-75
2021/12/22 10:08:19;;;;;;;7.43;6.72;;;13.50;57.00;;;;;;5033268;28;20659;-75
2021/12/22 10:10:49;;;;;;;7.30;6.60;;;14.30;57.40;;;;;;5028688;28;20273;-75
2021/12/22 10:13:16;;;;;;;8.40;6.82;;;14.30;55.60;;;;;;5024854;28;20285;-75
2021/12/22 10:15:43;;;;;;;8.25;7.25;;;14.90;53.40;;;;;;5025480;28;20173;-75
2021/12/22 10:18:14;;;;;;;7.45;6.70;;;14.40;53.00;;;;;;5026231;28;20202;-75
2021/12/22 10:20:41;;;;;;;7.95;7.18;;;13.90;54.30;;;;;;5022422;28;20198;-75
2021/12/22 10:23:21;;;;;;;8.48;6.43;;;13.70;54.20;;;;;;5043925;28;20185;-75
2021/12/22 10:26:07;;;;;;;6.97;6.28;;;13.70;55.30;;;;;;5027835;28;20222;-76
2021/12/22 10:28:59;;;;;;;7.22;6.50;;;15.20;53.40;;;;;;5028096;28;20195;-75
2021/12/22 10:31:37;;;;;;;7.82;6.60;;;15.60;50.10;;;;;;5029079;28;20180;-75
2021/12/22 10:34:12;;;;;;;7.07;6.25;;;16.10;50.60;;;;;;5030278;28;20235;-77
2021/12/22 10:36:48;;;;;;;7.13;6.47;;;16.20;50.20;;;;;;5029075;28;20640;-76
2021/12/22 10:39:27;;;;;;;7.28;6.55;;;15.90;49.10;;;;;;5027935;28;20233;-74
2021/12/22 10:42:00;;;;;;;6.45;5.85;;;16.30;49.20;;;;;;5025369;28;20262;-75
2021/12/22 10:44:35;;;;;;;6.20;5.57;;;16.90;48.00;;;;;;5034641;28;20177;-74
2021/12/22 10:47:14;;;;;;;7.93;6.32;;;18.10;47.30;;;;;;5035684;28;20192;-76
2021/12/22 10:49:40;;;;;;;6.70;6.10;;;17.50;46.60;;;;;;5036472;28;20723;-75
2021/12/22 10:52:06;;;;;;;7.22;6.05;;;17.20;45.90;;;;;;5030327;28;20268;-74
2021/12/22 10:54:37;;;;;;;6.57;5.93;;;17.00;47.10;;;;;;5031014;28;20219;-75
2021/12/22 10:57:08;;;;;;;8.07;5.80;;;16.10;47.40;;;;;;5035681;28;20181;-75
2021/12/22 10:59:47;;;;;;;7.75;5.30;;;15.40;48.80;;;;;;5023744;28;20219;-76
2021/12/22 11:02:20;;;;;;;5.38;4.97;;;16.40;48.30;;;;;;5036413;28;20187;-78
2021/12/22 11:04:46;;;;;;;5.43;5.03;;;17.50;46.00;;;;;;5031470;28;20212;-79
2021/12/22 11:07:27;;;;;;;5.28;4.78;;;18.40;44.70;;;;;;5044454;28;20409;-80
2021/12/22 11:09:54;;;;;;;7.65;4.88;;;18.20;44.30;;;;;;5044264;28;20216;-78
2021/12/22 11:12:39;;;;;;;8.88;5.28;;;17.30;47.40;;;;;;5042395;28;20779;-77
2021/12/22 11:15:22;;;;;;;5.97;4.38;;;18.60;44.50;;;;;;5036206;28;20182;-78
2021/12/22 11:17:48;;;;;;;4.38;3.97;;;18.60;43.70;;;;;;5037656;28;20181;-79
2021/12/22 11:20:13;;;;;;;4.72;4.18;;;19.40;42.90;;;;;;5078487;28;20310;-76
2021/12/22 11:22:58;;;;;;;4.20;3.90;;;18.40;41.80;;;;;;5035368;28;20239;-74
2021/12/22 11:25:25;;;;;;;6.22;4.60;;;17.70;43.50;;;;;;5027450;28;20180;-75
2021/12/22 11:27:52;;;;;;;4.75;4.40;;;17.10;44.90;;;;;;5023311;28;20613;-74
2021/12/22 11:30:19;;;;;;;4.85;4.38;;;17.70;43.90;;;;;;5029719;28;20210;-74
2021/12/22 11:32:45;;;;;;;5.10;4.70;;;17.80;43.90;;;;;;5026805;28;20181;-74
2021/12/22 11:35:12;;;;;;;5.30;4.80;;;17.90;43.40;;;;;;5028888;28;20175;-74
2021/12/22 11:37:38;;;;;;;6.15;4.63;;;17.10;43.80;;;;;;5026698;28;20319;-74
2021/12/22 11:40:08;;;;;;;4.97;4.57;;;17.20;45.30;;;;;;5032146;28;20216;-74
2021/12/22 11:42:37;;;;;;;6.30;5.10;;;17.20;43.80;;;;;;5025455;28;20172;-75
2021/12/22 11:45:15;;;;;;;4.55;4.25;;;16.30;44.90;;;;;;5029194;28;20656;-74
2021/12/22 11:47:44;;;;;;;5.10;4.60;;;16.60;46.20;;;;;;5029081;28;20189;-74
2021/12/22 11:50:22;;;;;;;5.10;4.65;;;17.40;44.50;;;;;;5035959;28;20362;-72
2021/12/22 11:53:06;;;;;;;5.28;4.80;;;18.30;43.60;;;;;;5025710;28;20181;-73
2021/12/22 11:55:40;;;;;;;5.22;4.75;;;19.50;42.20;;;;;;5027638;28;20651;-74
2021/12/22 11:58:20;;;;;;;5.10;4.63;;;20.50;41.30;;;;;;5032019;28;20620;-74
2021/12/22 12:00:55;;;;;;;4.72;4.43;;;20.80;40.20;;;;;;5032909;28;20205;-74
2021/12/22 12:03:36;;;;;;;4.72;4.32;;;21.40;39.30;;;;;;5027857;28;20183;-74
2021/12/22 12:06:12;;;;;;;4.10;3.88;;;21.60;38.90;;;;;;5029155;28;20610;-78
2021/12/22 12:08:54;;;;;;;4.75;4.35;;;20.70;39.30;;;;;;5031543;28;20202;-74
2021/12/22 12:11:55;;;;;;;5.43;4.93;;;20.00;39.20;;;;;;5031654;28;20676;-75
2021/12/22 12:23:35;;;;;;;5.15;4.60;;;19.10;41.70;;;;;;5023966;28;20187;-75
2021/12/22 12:26:05;;;;;;;5.13;4.72;;;19.70;40.90;;;;;;5034031;28;20196;-74
2021/12/22 12:28:47;;;;;;;4.97;4.57;;;18.90;40.90;;;;;;5028720;28;20221;-74
2021/12/22 12:31:13;;;;;;;4.50;4.10;;;19.90;40.50;;;;;;5032157;28;20173;-73
2021/12/22 12:33:44;;;;;;;5.00;4.32;;;20.20;39.40;;;;;;5024295;28;20239;-73
2021/12/22 12:36:12;;;;;;;4.57;4.22;;;20.90;39.30;;;;;;5032664;28;20187;-73
2021/12/22 12:38:40;;;;;;;4.53;4.22;;;21.10;38.40;;;;;;5031532;28;20211;-73
2021/12/22 12:41:18;;;;;;;5.10;4.60;;;19.60;38.60;;;;;;5032354;28;20238;-74
2021/12/22 12:43:51;;;;;;;5.93;4.05;;;19.00;40.40;;;;;;5025880;28;20184;-74
2021/12/22 12:46:20;;;;;;;4.93;4.53;;;18.60;40.10;;;;;;5027499;28;20183;-74
2021/12/22 12:49:11;;;;;;;4.57;4.18;;;17.90;41.00;;;;;;5036153;28;20192;-74
2021/12/22 12:51:56;;;;;;;5.18;4.78;;;16.30;43.20;;;;;;5026363;28;20234;-74
2021/12/22 12:54:22;;;;;;;5.13;4.60;;;15.90;43.30;;;;;;5024662;28;20194;-74
2021/12/22 12:57:00;;;;;;;5.47;5.00;;;14.80;44.50;;;;;;5033898;28;20199;-74
2021/12/22 12:59:38;;;;;;;5.30;4.90;;;13.00;46.70;;;;;;5033233;28;20204;-73
2021/12/22 13:02:11;;;;;;;6.13;4.82;;;12.40;49.30;;;;;;5030549;28;20299;-76
2021/12/22 13:04:39;;;;;;;4.85;4.45;;;12.10;49.60;;;;;;5029191;28;20180;-75
2021/12/22 13:07:09;;;;;;;4.45;4.15;;;11.80;50.60;;;;;;5036029;28;20216;-73
2021/12/22 13:09:41;;;;;;;5.90;4.50;;;11.90;50.90;;;;;;5029223;28;20682;-75
2021/12/22 13:17:49;;;;;;;4.57;4.28;;;13.20;48.90;;;;;;5025873;28;20192;-73
2021/12/22 13:20:17;;;;;;;6.40;5.07;;;12.80;49.20;;;;;;5033330;28;20200;-77
2021/12/22 13:22:53;;;;;;;5.03;4.60;;;12.00;49.90;;;;;;5020650;28;20200;-75